createdAt,value
2023-05-10T00:00:58.040Z,26.04
2023-05-10T00:01:58.093Z,29.49
2023-05-10T00:02:58.134Z,26.97
2023-05-10T00:03:58.144Z,28.00
2023-05-10T00:04:58.116Z,26.93
2023-05-10T00:05:58.140Z,29.66
2023-05-10T00:06:58.130Z,28.92
2023-05-10T00:07:58.170Z,27.28
2023-05-10T00:08:58.185Z,29.85
2023-05-10T00:09:58.197Z,26.25
2023-05-10T00:10:58.240Z,27.30
2023-05-10T00:11:58.238Z,26.88
2023-05-10T00:12:58.333Z,28.50
2023-05-10T00:13:58.506Z,29.53
2023-05-10T00:14:58.309Z,28.55
2023-05-10T00:15:58.319Z,28.65
2023-05-10T00:16:58.480Z,28.84
2023-05-10T00:17:58.410Z,28.12
2023-05-10T00:18:58.399Z,27.65
2023-05-10T00:19:58.442Z,28.29
2023-05-10T00:20:58.454Z,28.17
2023-05-10T00:21:58.515Z,27.70
2023-05-10T00:22:58.475Z,27.10
2023-05-10T00:23:59.015Z,27.06
2023-05-10T00:24:58.568Z,30.77
2023-05-10T00:25:58.591Z,26.97
2023-05-10T00:26:58.573Z,26.19
2023-05-10T00:27:58.616Z,26.98
2023-05-10T00:28:58.665Z,27.98
2023-05-10T00:29:58.666Z,25.72
2023-05-10T00:30:58.714Z,27.50
2023-05-10T00:31:58.852Z,28.06
2023-05-10T00:32:58.837Z,29.25
2023-05-10T00:33:58.803Z,28.61
2023-05-10T00:34:58.779Z,28.96
2023-05-10T00:35:58.816Z,29.18
2023-05-10T00:36:58.819Z,26.88
2023-05-10T00:37:58.854Z,29.32
2023-05-10T00:38:59.059Z,28.55
2023-05-10T00:39:58.928Z,27.96
2023-05-10T00:40:58.956Z,28.30
2023-05-10T00:41:58.960Z,29.32
2023-05-10T00:42:58.987Z,27.55
2023-05-10T00:43:59.016Z,30.34
2023-05-10T00:44:59.037Z,28.41
2023-05-10T00:45:59.142Z,27.93
2023-05-10T00:46:59.117Z,28.37
2023-05-10T00:47:59.157Z,26.05
2023-05-10T00:48:59.521Z,27.30
2023-05-10T00:49:59.182Z,26.80
2023-05-10T00:50:59.231Z,25.25
2023-05-10T00:51:59.225Z,25.64
2023-05-10T00:52:59.284Z,27.64
2023-05-10T00:53:59.559Z,27.76
2023-05-10T00:54:59.321Z,26.38
2023-05-10T00:55:59.335Z,27.39
2023-05-10T00:56:59.357Z,28.59
2023-05-10T00:57:59.373Z,27.02
2023-05-10T00:58:59.513Z,25.52
2023-05-10T00:59:59.452Z,25.15
2023-05-10T01:00:59.508Z,27.23
2023-05-10T01:01:59.510Z,26.57
2023-05-10T01:02:59.607Z,27.72
2023-05-10T01:04:00.088Z,29.58
2023-05-10T01:04:59.608Z,26.99
2023-05-10T01:05:59.645Z,28.96
2023-05-10T01:06:59.669Z,28.20
2023-05-10T01:07:59.705Z,29.41
2023-05-10T01:09:00.038Z,27.71
2023-05-10T01:09:59.773Z,26.83
2023-05-10T01:10:59.818Z,27.57
2023-05-10T01:11:59.934Z,28.85
2023-05-10T01:12:59.885Z,27.83
2023-05-10T01:14:00.047Z,27.47
2023-05-10T01:14:59.940Z,26.72
2023-05-10T01:15:59.991Z,27.16
2023-05-10T01:17:00.034Z,27.86
2023-05-10T01:18:00.118Z,28.79
2023-05-10T01:19:00.589Z,27.89
2023-05-10T01:20:00.125Z,25.00
2023-05-10T01:21:00.147Z,27.61
2023-05-10T01:22:00.158Z,27.58
2023-05-10T01:23:00.204Z,26.94
2023-05-10T01:24:00.286Z,29.65
2023-05-10T01:25:00.288Z,25.26
2023-05-10T01:26:00.303Z,27.46
2023-05-10T01:27:00.321Z,27.30
2023-05-10T01:28:00.413Z,27.20
2023-05-10T01:29:00.568Z,27.52
2023-05-10T01:30:14.053Z,29.54
2023-05-10T01:31:01.502Z,29.71
2023-05-10T01:32:00.450Z,29.59
2023-05-10T01:33:00.453Z,29.93
2023-05-10T01:34:00.568Z,28.63
2023-05-10T01:35:00.385Z,28.86
2023-05-10T01:36:00.407Z,26.93
2023-05-10T01:37:00.405Z,27.99
2023-05-10T01:38:00.373Z,27.48
2023-05-10T01:39:00.589Z,27.21
2023-05-10T01:40:00.340Z,27.11
2023-05-10T01:41:00.404Z,29.49
2023-05-10T01:42:00.411Z,27.88
2023-05-10T01:43:00.353Z,27.14
2023-05-10T01:44:00.366Z,26.81
2023-05-10T01:45:00.349Z,28.07
2023-05-10T01:46:00.397Z,27.42
2023-05-10T01:47:00.546Z,27.96
2023-05-10T01:48:00.513Z,28.35
2023-05-10T01:49:00.596Z,25.12
2023-05-10T01:50:00.540Z,28.20
2023-05-10T01:51:00.581Z,27.86
2023-05-10T01:52:00.586Z,27.46
2023-05-10T01:53:00.614Z,29.33
2023-05-10T01:54:00.638Z,27.77
2023-05-10T01:55:00.722Z,27.81
2023-05-10T01:56:00.748Z,27.23
2023-05-10T01:57:00.787Z,29.04
2023-05-10T01:58:00.769Z,29.22
2023-05-10T01:59:00.872Z,26.94
2023-05-10T02:00:00.939Z,26.58
2023-05-10T02:01:00.976Z,28.14
2023-05-10T02:02:01.003Z,29.87
2023-05-10T02:03:01.036Z,26.48
2023-05-10T02:04:02.010Z,28.66
2023-05-10T02:05:01.058Z,31.12
2023-05-10T02:06:01.123Z,28.01
2023-05-10T02:07:01.190Z,30.99
2023-05-10T02:08:01.188Z,29.34
2023-05-10T02:09:01.227Z,29.88
2023-05-10T02:10:01.278Z,29.36
2023-05-10T02:11:01.288Z,29.01
2023-05-10T02:12:01.357Z,30.54
2023-05-10T02:13:01.422Z,27.81
2023-05-10T02:14:01.570Z,29.55
2023-05-10T02:15:01.437Z,29.45
2023-05-10T02:16:01.509Z,28.18
2023-05-10T02:17:01.584Z,29.62
2023-05-10T02:18:01.621Z,26.88
2023-05-10T02:19:02.089Z,28.58
2023-05-10T02:20:01.621Z,30.44
2023-05-10T02:21:01.686Z,27.93
2023-05-10T02:22:01.700Z,27.66
2023-05-10T02:23:01.737Z,28.37
2023-05-10T02:24:01.758Z,28.20
2023-05-10T02:25:01.838Z,29.01
2023-05-10T02:26:01.856Z,28.06
2023-05-10T02:27:01.942Z,27.86
2023-05-10T02:28:01.950Z,28.59
2023-05-10T02:29:02.006Z,28.66
2023-05-10T02:30:02.016Z,28.56
2023-05-10T02:31:02.087Z,26.04
2023-05-10T02:32:02.156Z,27.88
2023-05-10T02:33:02.180Z,27.37
2023-05-10T02:34:02.192Z,28.73
2023-05-10T02:35:02.259Z,26.73
2023-05-10T02:36:02.332Z,27.96
2023-05-10T02:37:02.326Z,28.16
2023-05-10T02:38:02.407Z,27.92
2023-05-10T02:39:02.559Z,28.63
2023-05-10T02:40:02.449Z,27.04
2023-05-10T02:41:02.622Z,27.52
2023-05-10T02:42:02.565Z,29.59
2023-05-10T02:43:02.578Z,29.11
2023-05-10T02:44:02.615Z,28.29
2023-05-10T02:45:02.670Z,27.68
2023-05-10T02:46:02.730Z,28.06
2023-05-10T02:47:02.723Z,27.40
2023-05-10T02:48:02.776Z,28.11
2023-05-10T02:49:02.848Z,28.03
2023-05-10T02:50:02.880Z,27.17
2023-05-10T02:51:02.923Z,25.29
2023-05-10T02:52:02.990Z,27.95
2023-05-10T02:53:03.039Z,28.20
2023-05-10T02:54:03.066Z,25.00
2023-05-10T02:55:03.059Z,28.11
2023-05-10T02:56:03.133Z,27.27
2023-05-10T02:57:03.174Z,25.36
2023-05-10T02:58:03.227Z,26.78
2023-05-10T02:59:03.265Z,27.79
2023-05-10T03:00:03.333Z,26.89
2023-05-10T03:01:03.347Z,29.84
2023-05-10T03:02:03.366Z,26.62
2023-05-10T03:03:03.485Z,28.68
2023-05-10T03:04:03.561Z,27.54
2023-05-10T03:05:03.519Z,28.05
2023-05-10T03:06:03.543Z,28.03
2023-05-10T03:07:03.585Z,27.44
2023-05-10T03:08:03.628Z,27.03
2023-05-10T03:09:03.643Z,26.44
2023-05-10T03:10:03.688Z,29.05
2023-05-10T03:11:03.751Z,28.79
2023-05-10T03:12:03.818Z,28.77
2023-05-10T03:13:03.889Z,25.51
2023-05-10T03:14:03.917Z,27.78
2023-05-10T03:15:03.941Z,29.50
2023-05-10T03:16:04.016Z,30.04
2023-05-10T03:17:04.040Z,27.78
2023-05-10T03:18:04.098Z,28.35
2023-05-10T03:19:04.148Z,29.59
2023-05-10T03:20:04.163Z,27.87
2023-05-10T03:21:04.187Z,27.37
2023-05-10T03:22:04.216Z,28.10
2023-05-10T03:23:04.282Z,26.90
2023-05-10T03:24:04.312Z,26.55
2023-05-10T03:25:04.373Z,28.61
2023-05-10T03:26:04.382Z,29.91
2023-05-10T03:27:04.457Z,26.75
2023-05-10T03:28:04.499Z,27.12
2023-05-10T03:29:04.576Z,28.66
2023-05-10T03:30:04.598Z,28.17
2023-05-10T03:31:04.672Z,29.20
2023-05-10T03:32:04.737Z,27.25
2023-05-10T03:33:04.788Z,27.11
2023-05-10T03:34:04.820Z,28.45
2023-05-10T03:35:04.879Z,28.25
2023-05-10T03:36:04.932Z,27.25
2023-05-10T03:37:04.978Z,26.58
2023-05-10T03:38:04.974Z,27.03
2023-05-10T03:39:05.096Z,28.58
2023-05-10T03:40:05.086Z,28.22
2023-05-10T03:41:05.157Z,29.64
2023-05-10T03:42:05.252Z,25.84
2023-05-10T03:43:05.255Z,27.25
2023-05-10T03:44:05.599Z,28.78
2023-05-10T03:45:05.356Z,26.45
2023-05-10T03:46:05.389Z,28.75
2023-05-10T03:47:05.524Z,28.50
2023-05-10T03:48:05.544Z,26.57
2023-05-10T03:49:05.519Z,30.76
2023-05-10T03:50:05.630Z,25.66
2023-05-10T03:51:05.669Z,29.60
2023-05-10T03:52:05.708Z,27.96
2023-05-10T03:53:05.770Z,29.98
2023-05-10T03:54:06.090Z,28.09
2023-05-10T03:55:05.846Z,27.95
2023-05-10T03:56:05.902Z,27.88
2023-05-10T03:57:05.904Z,29.11
2023-05-10T03:58:05.981Z,29.49
2023-05-10T03:59:06.019Z,28.71
2023-05-10T04:00:06.075Z,28.93
2023-05-10T04:01:06.112Z,31.29
2023-05-10T04:02:06.221Z,29.43
2023-05-10T04:03:06.290Z,27.61
2023-05-10T04:04:06.343Z,29.13
2023-05-10T04:05:06.313Z,28.19
2023-05-10T04:06:06.497Z,28.62
2023-05-10T04:07:06.439Z,28.26
2023-05-10T04:08:06.525Z,27.47
2023-05-10T04:09:06.595Z,29.27
2023-05-10T04:10:06.602Z,28.37
2023-05-10T04:11:06.660Z,27.14
2023-05-10T04:12:07.965Z,26.88
2023-05-10T04:13:06.896Z,29.11
2023-05-10T04:14:06.811Z,28.25
2023-05-10T04:15:06.875Z,26.91
2023-05-10T04:16:06.898Z,26.62
2023-05-10T04:17:07.006Z,25.95
2023-05-10T04:18:08.817Z,25.30
2023-05-10T04:19:07.120Z,26.52
2023-05-10T04:20:07.158Z,26.80
2023-05-10T04:21:07.187Z,25.00
2023-05-10T04:22:07.261Z,27.16
2023-05-10T04:23:07.338Z,27.48
2023-05-10T04:24:07.631Z,27.12
2023-05-10T04:25:07.399Z,28.20
2023-05-10T04:26:07.459Z,26.42
2023-05-10T04:27:07.496Z,26.14
2023-05-10T04:28:07.584Z,28.43
2023-05-10T04:29:07.623Z,28.15
2023-05-10T04:30:07.721Z,28.84
2023-05-10T04:31:07.766Z,30.77
2023-05-10T04:32:07.775Z,28.73
2023-05-10T04:33:07.957Z,26.83
2023-05-10T04:34:07.932Z,26.31
2023-05-10T04:35:07.962Z,26.25
2023-05-10T04:36:08.024Z,26.23
2023-05-10T04:37:08.075Z,25.00
2023-05-10T04:38:08.113Z,28.04
2023-05-10T04:39:08.193Z,27.61
2023-05-10T04:40:08.237Z,29.10
2023-05-10T04:41:08.292Z,28.29
2023-05-10T04:42:08.367Z,28.97
2023-05-10T04:43:08.408Z,27.56
2023-05-10T04:44:08.482Z,27.52
2023-05-10T04:45:08.515Z,26.72
2023-05-10T04:46:08.733Z,27.14
2023-05-10T04:47:11.141Z,29.70
2023-05-10T04:48:08.614Z,32.83
2023-05-10T04:49:09.304Z,29.75
2023-05-10T04:50:08.621Z,27.50
2023-05-10T04:51:08.601Z,28.00
2023-05-10T04:52:08.600Z,27.37
2023-05-10T04:53:08.616Z,28.68
2023-05-10T04:54:08.621Z,33.23
2023-05-10T04:55:08.577Z,32.70
2023-05-10T04:56:08.596Z,30.00
2023-05-10T04:57:08.561Z,29.51
2023-05-10T04:58:08.595Z,28.51
2023-05-10T04:59:08.555Z,25.00
2023-05-10T05:00:08.543Z,27.45
2023-05-10T05:01:08.561Z,28.07
2023-05-10T05:02:08.561Z,30.45
2023-05-10T05:03:08.588Z,30.11
2023-05-10T05:04:08.652Z,31.94
2023-05-10T05:05:08.507Z,29.31
2023-05-10T05:06:08.498Z,26.96
2023-05-10T05:07:08.494Z,26.26
2023-05-10T05:08:08.498Z,26.92
2023-05-10T05:09:08.519Z,31.16
2023-05-10T05:10:08.478Z,34.50
2023-05-10T05:11:08.492Z,36.16
2023-05-10T05:12:08.529Z,36.42
2023-05-10T05:13:08.587Z,25.00
2023-05-10T05:14:08.644Z,26.74
2023-05-10T05:15:09.756Z,25.00
2023-05-10T05:16:08.766Z,29.29
2023-05-10T05:17:08.817Z,33.64
2023-05-10T05:18:08.912Z,29.46
2023-05-10T05:19:08.955Z,34.43
2023-05-10T05:20:09.038Z,39.19
2023-05-10T05:21:09.094Z,37.47
2023-05-10T05:22:09.134Z,41.69
2023-05-10T05:23:09.274Z,38.35
2023-05-10T05:24:09.260Z,42.90
2023-05-10T05:25:09.350Z,36.91
2023-05-10T05:26:09.398Z,46.08
2023-05-10T05:27:09.424Z,51.18
2023-05-10T05:28:09.524Z,44.76
2023-05-10T05:29:09.625Z,43.27
2023-05-10T05:30:09.617Z,43.31
2023-05-10T05:31:09.714Z,41.22
2023-05-10T05:32:09.854Z,33.91
2023-05-10T05:33:09.841Z,34.36
2023-05-10T05:34:09.855Z,35.29
2023-05-10T05:35:09.906Z,31.60
2023-05-10T05:36:09.936Z,28.90
2023-05-10T05:37:09.970Z,28.40
2023-05-10T05:38:10.055Z,30.41
2023-05-10T05:39:10.055Z,25.50
2023-05-10T05:40:10.076Z,26.49
2023-05-10T05:41:10.380Z,25.27
2023-05-10T05:42:10.347Z,25.35
2023-05-10T05:43:10.266Z,24.93
2023-05-10T05:44:10.206Z,29.67
2023-05-10T05:45:10.194Z,28.12
2023-05-10T05:46:10.241Z,25.00
2023-05-10T05:47:10.213Z,25.00
2023-05-10T05:48:10.269Z,26.31
2023-05-10T05:49:10.642Z,26.81
2023-05-10T05:50:10.205Z,27.53
2023-05-10T05:51:10.218Z,28.15
2023-05-10T05:52:10.224Z,28.69
2023-05-10T05:53:10.234Z,28.97
2023-05-10T05:54:10.227Z,26.54
2023-05-10T05:55:10.645Z,28.28
2023-05-10T05:56:10.244Z,29.59
2023-05-10T05:57:10.223Z,32.09
2023-05-10T05:58:10.230Z,30.34
2023-05-10T05:59:10.223Z,41.90
2023-05-10T06:00:10.630Z,51.65
2023-05-10T06:01:10.283Z,65.23
2023-05-10T06:02:10.378Z,75.45
2023-05-10T06:03:10.481Z,81.78
2023-05-10T06:04:10.530Z,86.95
2023-05-10T06:05:10.549Z,91.78
2023-05-10T06:06:10.588Z,97.65
2023-05-10T06:07:10.622Z,102.99
2023-05-10T06:08:10.704Z,108.72
2023-05-10T06:09:10.759Z,112.46
2023-05-10T06:10:10.830Z,114.68
2023-05-10T06:11:10.869Z,119.14
2023-05-10T06:12:10.896Z,118.07
2023-05-10T06:13:11.047Z,123.42
2023-05-10T06:14:11.027Z,121.83
2023-05-10T06:15:11.061Z,125.21
2023-05-10T06:16:11.123Z,128.76
2023-05-10T06:17:11.152Z,132.01
2023-05-10T06:18:11.177Z,126.51
2023-05-10T06:19:11.195Z,128.52
2023-05-10T06:20:11.286Z,129.95
2023-05-10T06:21:11.306Z,137.19
2023-05-10T06:22:11.281Z,131.21
2023-05-10T06:23:11.344Z,141.79
2023-05-10T06:24:11.353Z,143.17
2023-05-10T06:25:11.378Z,146.89
2023-05-10T06:26:11.404Z,139.30
2023-05-10T06:27:11.450Z,140.99
2023-05-10T06:28:11.456Z,145.89
2023-05-10T06:29:11.501Z,145.69
2023-05-10T06:30:13.396Z,142.10
2023-05-10T06:31:11.614Z,142.71
2023-05-10T06:32:11.568Z,148.50
2023-05-10T06:33:11.683Z,143.33
2023-05-10T06:34:11.599Z,147.09
2023-05-10T06:35:11.646Z,142.92
2023-05-10T06:36:11.687Z,131.83
2023-05-10T06:37:11.693Z,114.33
2023-05-10T06:38:12.626Z,141.61
2023-05-10T06:39:11.669Z,144.13
2023-05-10T06:40:11.711Z,139.52
2023-05-10T06:41:11.784Z,157.42
2023-05-10T06:42:11.758Z,154.29
2023-05-10T06:43:11.792Z,152.06
2023-05-10T06:44:11.806Z,159.40
2023-05-10T06:45:11.821Z,156.70
2023-05-10T06:46:11.840Z,145.93
2023-05-10T06:47:11.821Z,138.44
2023-05-10T06:48:11.860Z,123.78
2023-05-10T06:49:11.861Z,130.59
2023-05-10T06:50:11.850Z,137.35
2023-05-10T06:51:11.879Z,139.05
2023-05-10T06:52:11.907Z,105.92
2023-05-10T06:53:11.872Z,103.68
2023-05-10T06:54:11.983Z,108.04
2023-05-10T06:55:11.925Z,123.12
2023-05-10T06:56:11.936Z,112.13
2023-05-10T06:57:23.219Z,127.18
2023-05-10T06:58:12.895Z,127.88
2023-05-10T06:59:11.974Z,131.50
2023-05-10T07:00:11.933Z,137.85
2023-05-10T07:01:11.999Z,147.66
2023-05-10T07:02:11.952Z,162.06
2023-05-10T07:03:11.997Z,162.91
2023-05-10T07:04:11.846Z,162.62
2023-05-10T07:05:12.159Z,159.69
2023-05-10T07:06:21.769Z,163.46
2023-05-10T07:07:12.830Z,163.63
2023-05-10T07:08:11.869Z,163.11
2023-05-10T07:09:11.851Z,161.26
2023-05-10T07:10:11.819Z,157.54
2023-05-10T07:11:11.798Z,160.40
2023-05-10T07:12:14.158Z,160.01
2023-05-10T07:13:11.969Z,160.49
2023-05-10T07:14:11.801Z,158.46
2023-05-10T07:15:11.794Z,157.42
2023-05-10T07:16:11.776Z,157.14
2023-05-10T07:17:11.793Z,156.38
2023-05-10T07:18:11.833Z,154.75
2023-05-10T07:19:11.746Z,153.81
2023-05-10T07:20:12.206Z,152.79
2023-05-10T07:21:11.831Z,152.85
2023-05-10T07:22:11.723Z,153.19
2023-05-10T07:23:11.770Z,151.08
2023-05-10T07:24:11.769Z,149.81
2023-05-10T07:25:11.728Z,149.89
2023-05-10T07:26:11.752Z,148.60
2023-05-10T07:27:11.698Z,153.18
2023-05-10T07:28:11.701Z,159.16
2023-05-10T07:29:11.673Z,159.96
2023-05-10T07:30:11.704Z,147.14
2023-05-10T07:31:11.686Z,145.52
2023-05-10T07:32:11.723Z,150.26
2023-05-10T07:33:11.741Z,151.20
2023-05-10T07:34:11.715Z,150.76
2023-05-10T07:35:11.637Z,152.08
2023-05-10T07:36:11.676Z,155.40
2023-05-10T07:37:11.679Z,156.94
2023-05-10T07:38:11.630Z,159.28
2023-05-10T07:39:14.367Z,140.87
2023-05-10T07:40:11.598Z,141.26
2023-05-10T07:41:11.584Z,142.67
2023-05-10T07:42:11.752Z,144.09
2023-05-10T07:43:11.594Z,144.57
2023-05-10T07:44:11.564Z,106.23
2023-05-10T07:45:11.627Z,106.93
2023-05-10T07:46:11.582Z,105.76
2023-05-10T07:47:11.583Z,119.11
2023-05-10T07:48:11.562Z,127.35
2023-05-10T07:49:11.542Z,110.89
2023-05-10T07:50:11.698Z,124.70
2023-05-10T07:51:11.541Z,122.36
2023-05-10T07:52:11.530Z,111.12
2023-05-10T07:53:11.534Z,130.96
2023-05-10T07:54:11.490Z,125.16
2023-05-10T07:55:11.669Z,132.80
2023-05-10T07:56:11.588Z,143.74
2023-05-10T07:57:11.491Z,146.35
2023-05-10T07:58:11.703Z,152.55
2023-05-10T07:59:12.949Z,164.25
2023-05-10T08:00:11.477Z,157.71
2023-05-10T08:01:11.490Z,166.33
2023-05-10T08:02:11.498Z,167.77
2023-05-10T08:03:11.640Z,159.55
2023-05-10T08:04:11.475Z,169.33
2023-05-10T08:05:11.440Z,164.46
2023-05-10T08:06:11.472Z,165.97
2023-05-10T08:07:11.562Z,167.95
2023-05-10T08:08:11.587Z,156.10
2023-05-10T08:09:11.689Z,152.79
2023-05-10T08:10:12.232Z,161.82
2023-05-10T08:11:11.800Z,159.37
2023-05-10T08:12:11.869Z,149.04
2023-05-10T08:13:11.918Z,149.62
2023-05-10T08:14:11.973Z,145.76
2023-05-10T08:15:12.219Z,136.34
2023-05-10T08:16:12.138Z,123.97
2023-05-10T08:17:12.167Z,118.24
2023-05-10T08:18:12.290Z,124.92
2023-05-10T08:19:12.281Z,123.42
2023-05-10T08:20:12.330Z,116.80
2023-05-10T08:21:12.365Z,116.00
2023-05-10T08:22:12.418Z,123.27
2023-05-10T08:23:12.479Z,143.84
2023-05-10T08:24:12.594Z,152.97
2023-05-10T08:25:12.607Z,160.44
2023-05-10T08:26:12.683Z,155.32
2023-05-10T08:27:12.724Z,156.25
2023-05-10T08:28:12.756Z,156.19
2023-05-10T08:29:12.866Z,147.10
2023-05-10T08:30:13.205Z,144.75
2023-05-10T08:31:13.126Z,155.68
2023-05-10T08:32:13.042Z,152.63
2023-05-10T08:33:13.075Z,150.69
2023-05-10T08:34:13.154Z,149.99
2023-05-10T08:35:13.180Z,150.47
2023-05-10T08:36:13.214Z,152.70
2023-05-10T08:37:13.296Z,153.68
2023-05-10T08:38:13.378Z,128.62
2023-05-10T08:39:22.806Z,136.66
2023-05-10T08:40:14.669Z,137.07
2023-05-10T08:41:13.354Z,138.42
2023-05-10T08:42:13.356Z,126.45
2023-05-10T08:43:13.350Z,108.90
2023-05-10T08:44:13.377Z,117.51
2023-05-10T08:45:13.753Z,114.37
2023-05-10T08:46:13.404Z,115.61
2023-05-10T08:47:13.416Z,116.82
2023-05-10T08:48:13.398Z,126.38
2023-05-10T08:49:13.399Z,131.51
2023-05-10T08:50:13.707Z,135.57
2023-05-10T08:51:13.582Z,135.23
2023-05-10T08:52:13.624Z,135.42
2023-05-10T08:53:13.703Z,131.06
2023-05-10T08:54:13.720Z,130.53
2023-05-10T08:55:15.916Z,128.06
2023-05-10T08:56:14.711Z,124.81
2023-05-10T08:57:13.824Z,123.42
2023-05-10T08:58:13.796Z,122.76
2023-05-10T08:59:13.775Z,118.81
2023-05-10T09:00:14.205Z,116.83
2023-05-10T09:01:13.848Z,115.06
2023-05-10T09:02:13.802Z,113.90
2023-05-10T09:03:13.815Z,112.58
2023-05-10T09:04:13.824Z,111.67
2023-05-10T09:05:14.270Z,109.22
2023-05-10T09:06:13.739Z,108.71
2023-05-10T09:07:13.773Z,107.23
2023-05-10T09:08:13.752Z,105.46
2023-05-10T09:09:13.756Z,102.54
2023-05-10T09:10:13.772Z,102.20
2023-05-10T09:11:13.835Z,102.64
2023-05-10T09:12:13.798Z,100.45
2023-05-10T09:13:13.828Z,97.83
2023-05-10T09:14:13.847Z,93.81
2023-05-10T09:15:13.807Z,92.08
2023-05-10T09:16:21.785Z,92.31
2023-05-10T09:17:14.866Z,92.37
2023-05-10T09:18:13.968Z,90.59
2023-05-10T09:19:13.884Z,88.32
2023-05-10T09:20:14.185Z,91.16
2023-05-10T09:21:13.782Z,92.05
2023-05-10T09:22:13.783Z,87.24
2023-05-10T09:23:13.796Z,85.65
2023-05-10T09:24:13.762Z,82.32
2023-05-10T09:25:14.505Z,84.32
2023-05-10T09:26:13.773Z,84.70
2023-05-10T09:27:13.777Z,84.06
2023-05-10T09:28:13.771Z,81.13
2023-05-10T09:29:15.362Z,79.64
2023-05-10T09:30:14.217Z,84.04
2023-05-10T09:31:13.781Z,84.40
2023-05-10T09:32:14.021Z,81.51
2023-05-10T09:33:13.731Z,80.04
2023-05-10T09:34:13.728Z,80.02
2023-05-10T09:35:13.749Z,77.24
2023-05-10T09:36:13.714Z,79.26
2023-05-10T09:37:13.691Z,78.13
2023-05-10T09:38:13.701Z,75.82
2023-05-10T09:39:13.679Z,75.02
2023-05-10T09:40:13.747Z,74.83
2023-05-10T09:41:13.678Z,75.76
2023-05-10T09:42:13.666Z,75.83
2023-05-10T09:43:13.663Z,73.49
2023-05-10T09:44:13.744Z,73.87
2023-05-10T09:45:13.670Z,71.69
2023-05-10T09:46:13.797Z,72.27
2023-05-10T09:47:13.640Z,71.72
2023-05-10T09:48:13.694Z,74.08
2023-05-10T09:49:13.596Z,73.29
2023-05-10T09:50:13.605Z,76.69
2023-05-10T09:51:13.597Z,77.70
2023-05-10T09:52:13.588Z,78.54
2023-05-10T09:53:13.593Z,77.12
2023-05-10T09:54:13.610Z,76.82
2023-05-10T09:55:13.646Z,74.92
2023-05-10T09:56:13.550Z,67.47
2023-05-10T09:57:13.567Z,72.53
2023-05-10T09:58:14.219Z,73.01
2023-05-10T09:59:13.539Z,73.81
2023-05-10T10:00:13.552Z,72.59
2023-05-10T10:01:13.746Z,73.26
2023-05-10T10:02:13.539Z,72.34
2023-05-10T10:03:13.502Z,70.49
2023-05-10T10:04:13.604Z,68.89
2023-05-10T10:05:13.649Z,69.13
2023-05-10T10:06:22.873Z,69.79
2023-05-10T10:07:14.482Z,70.06
2023-05-10T10:08:13.469Z,66.59
2023-05-10T10:09:13.469Z,69.99
2023-05-10T10:10:13.516Z,71.91
2023-05-10T10:11:13.727Z,64.00
2023-05-10T10:12:13.468Z,66.83
2023-05-10T10:13:13.519Z,66.89
2023-05-10T10:14:13.572Z,67.56
2023-05-10T10:15:15.962Z,70.27
2023-05-10T10:16:13.658Z,64.87
2023-05-10T10:17:13.571Z,62.06
2023-05-10T10:18:13.545Z,61.66
2023-05-10T10:19:13.585Z,62.59
2023-05-10T10:20:13.660Z,63.01
2023-05-10T10:21:13.694Z,65.05
2023-05-10T10:22:13.524Z,65.65
2023-05-10T10:23:15.152Z,56.57
2023-05-10T10:24:13.516Z,56.98
2023-05-10T10:25:13.516Z,57.60
2023-05-10T10:26:13.741Z,57.44
2023-05-10T10:27:13.503Z,59.23
2023-05-10T10:28:13.518Z,64.29
2023-05-10T10:29:13.507Z,65.22
2023-05-10T10:30:13.496Z,60.86
2023-05-10T10:31:13.505Z,60.89
2023-05-10T10:32:13.438Z,63.68
2023-05-10T10:33:27.260Z,57.05
2023-05-10T10:34:14.482Z,57.52
2023-05-10T10:35:13.428Z,58.62
2023-05-10T10:36:13.711Z,61.09
2023-05-10T10:37:13.435Z,53.73
2023-05-10T10:38:13.444Z,39.19
2023-05-10T10:39:13.418Z,36.60
2023-05-10T10:40:13.434Z,42.24
2023-05-10T10:41:13.439Z,37.19
2023-05-10T10:42:13.444Z,28.32
2023-05-10T10:43:13.434Z,27.96
2023-05-10T10:44:13.459Z,31.62
2023-05-10T10:45:13.567Z,44.83
2023-05-10T10:46:13.682Z,46.05
2023-05-10T10:47:13.653Z,50.00
2023-05-10T10:48:13.696Z,66.14
2023-05-10T10:49:13.758Z,63.86
2023-05-10T10:50:13.902Z,56.26
2023-05-10T10:51:13.887Z,62.07
2023-05-10T10:52:13.922Z,68.17
2023-05-10T10:53:14.039Z,78.16
2023-05-10T10:54:13.999Z,152.84
2023-05-10T10:55:14.064Z,135.02
2023-05-10T10:56:14.117Z,118.71
2023-05-10T10:57:14.167Z,115.35
2023-05-10T10:58:14.186Z,118.65
2023-05-10T10:59:14.242Z,119.46
2023-05-10T11:00:14.280Z,116.18
2023-05-10T11:01:14.764Z,111.30
2023-05-10T11:02:14.413Z,112.92
2023-05-10T11:03:14.587Z,114.33
2023-05-10T11:04:14.497Z,118.26
2023-05-10T11:05:14.654Z,102.63
2023-05-10T11:06:14.553Z,104.10
2023-05-10T11:07:14.634Z,107.57
2023-05-10T11:08:14.683Z,109.68
2023-05-10T11:09:14.727Z,109.17
2023-05-10T11:10:14.826Z,115.88
2023-05-10T11:11:15.278Z,119.62
2023-05-10T11:12:14.876Z,122.75
2023-05-10T11:13:14.916Z,106.73
2023-05-10T11:14:14.952Z,107.24
2023-05-10T11:15:15.104Z,101.19
2023-05-10T11:16:15.292Z,109.27
2023-05-10T11:17:15.345Z,115.23
2023-05-10T11:18:15.124Z,119.39
2023-05-10T11:19:15.216Z,123.89
2023-05-10T11:20:15.523Z,124.46
2023-05-10T11:21:15.759Z,121.89
2023-05-10T11:22:15.268Z,101.98
2023-05-10T11:23:15.311Z,103.72
2023-05-10T11:24:15.467Z,88.17
2023-05-10T11:25:15.376Z,99.95
2023-05-10T11:26:15.410Z,113.24
2023-05-10T11:27:15.441Z,115.92
2023-05-10T11:28:15.508Z,116.42
2023-05-10T11:29:15.515Z,121.36
2023-05-10T11:30:15.893Z,122.52
2023-05-10T11:31:15.827Z,123.28
2023-05-10T11:32:15.658Z,123.47
2023-05-10T11:33:15.655Z,137.77
2023-05-10T11:34:15.664Z,122.69
2023-05-10T11:35:15.707Z,119.56
2023-05-10T11:36:16.244Z,102.24
2023-05-10T11:37:15.856Z,78.89
2023-05-10T11:38:15.964Z,98.51
2023-05-10T11:39:15.818Z,107.04
2023-05-10T11:40:16.091Z,114.18
2023-05-10T11:41:16.263Z,116.77
2023-05-10T11:42:15.879Z,118.88
2023-05-10T11:43:15.937Z,118.13
2023-05-10T11:44:16.006Z,116.06
2023-05-10T11:45:15.998Z,115.83
2023-05-10T11:46:16.187Z,110.61
2023-05-10T11:47:16.069Z,109.16
2023-05-10T11:48:16.132Z,106.76
2023-05-10T11:49:16.130Z,105.71
2023-05-10T11:50:16.382Z,101.65
2023-05-10T11:51:16.287Z,104.11
2023-05-10T11:52:17.269Z,102.49
2023-05-10T11:53:16.324Z,100.66
2023-05-10T11:54:16.391Z,101.55
2023-05-10T11:55:16.481Z,98.64
2023-05-10T11:56:16.530Z,95.70
2023-05-10T11:57:16.579Z,92.89
2023-05-10T11:58:16.644Z,92.88
2023-05-10T11:59:16.710Z,89.49
2023-05-10T12:00:16.993Z,87.99
2023-05-10T12:01:16.805Z,91.22
2023-05-10T12:02:16.935Z,88.86
2023-05-10T12:03:17.008Z,86.18
2023-05-10T12:04:17.454Z,85.96
2023-05-10T12:05:17.023Z,81.34
2023-05-10T12:06:17.078Z,84.33
2023-05-10T12:07:17.159Z,86.64
2023-05-10T12:08:17.276Z,85.08
2023-05-10T12:09:19.230Z,86.37
2023-05-10T12:10:18.601Z,86.50
2023-05-10T12:11:17.756Z,84.95
2023-05-10T12:12:17.318Z,81.22
2023-05-10T12:13:17.278Z,86.04
2023-05-10T12:14:17.281Z,84.88
2023-05-10T12:15:17.218Z,83.56
2023-05-10T12:16:17.276Z,82.50
2023-05-10T12:17:17.234Z,84.27
2023-05-10T12:18:17.419Z,85.02
2023-05-10T12:19:17.361Z,78.18
2023-05-10T12:20:17.780Z,77.67
2023-05-10T12:21:17.765Z,80.57
2023-05-10T12:22:17.474Z,78.21
2023-05-10T12:23:17.479Z,76.22
2023-05-10T12:24:17.512Z,75.05
2023-05-10T12:25:17.587Z,77.12
2023-05-10T12:26:17.765Z,81.23
2023-05-10T12:27:17.603Z,80.21
2023-05-10T12:28:17.641Z,77.38
2023-05-10T12:29:17.734Z,80.30
2023-05-10T12:30:17.836Z,78.99
2023-05-10T12:31:18.318Z,79.57
2023-05-10T12:32:17.849Z,78.96
2023-05-10T12:33:17.911Z,75.06
2023-05-10T12:34:17.932Z,79.21
2023-05-10T12:35:17.937Z,77.82
2023-05-10T12:36:18.013Z,79.34
2023-05-10T12:37:18.013Z,65.02
2023-05-10T12:38:18.065Z,71.31
2023-05-10T12:39:18.072Z,77.64
2023-05-10T12:40:18.310Z,73.51
2023-05-10T12:41:18.359Z,74.71
2023-05-10T12:42:18.122Z,73.41
2023-05-10T12:43:18.161Z,75.63
2023-05-10T12:44:18.175Z,75.12
2023-05-10T12:45:18.211Z,75.32